CheckWX is a tool to help pilots better visualize weather data.  It is not intended as a substitute for an official pre-flight weather briefing.

00:13:17 UTC

KENW TAF
Kenosha Regional Airport
Kenosha, Wisconsin, USA
KENW 040520Z 0406/0506 VRB03KT P6SM SCT250 TEMPO 0408/0412 1SM BR FM041600 04008KT P6SM FEW040 SCT250

Jul-4@
06:00 UTC

Jul-4 @ 06:00 UTC

Jul-4@
16:00 UTC

Jul-4 @ 16:00 UTC

TAF KENW 040520Z 0406/0506 VRB03KT P6SM SCT250

Expired

Wind
  • Variable at 3 KTS
Cloud Levels
  • Scattered at 25,000' AGL

Jul-4@
08:00 UTC

Jul-4 @ 08:00 UTC

Jul-4@
12:00 UTC

Jul-4 @ 12:00 UTC

TEMPO 0408/0412 1SM BR

Expired

Conditions
Mist
Cloud Levels

Jul-4@
16:00 UTC

Jul-4 @ 16:00 UTC

Jul-5@
06:00 UTC

Jul-5 @ 06:00 UTC

FM041600 04008KT P6SM FEW040 SCT250

From

From Standard forecast or significant change

Wind
  • 040° at 8 KTS
Cloud Levels
  • Few at 4,000' AGL
  • Scattered at 25,000' AGL